Terminal Aerodrome Forecast
Issued by NWS Buffalo, NY

Home | Current Version | Previous Version | Text Only | Print | Product List | Glossary On
Versions: 1 2 3 4 5 6 7 8 9 10 11 12 13 14 15 16 17 18 19 20 21 22 23 24 25 26 27 28
000
FTUS41 KBUF 272300
TAFART
TAF
KART 272327Z 2800/2824 18007KT P6SM FEW040 OVC080
     FM280300 21016KT P6SM VCSH BKN045
     FM280400 21017KT P6SM VCSH BKN040
     FM280600 22017KT 6SM -SHRA OVC020
     FM281000 24015KT 6SM -SHRA OVC090
     FM281200 27013KT P6SM BKN120
     FM282100 26009KT P6SM BKN200
     FM282200 27008KT P6SM BKN250=

USA.gov is the U.S. government's official web portal to all federal, state and local government web resources and services.